Time;durP1;ratioP1;P1;durP2;ratioP2;P2;SDS_P1;SDS_P2;PMS_P1;PMS_P2;Temp;Humidity;BMP_temperature;BMP_pressure;BME280_temperature;BME280_humidity;BME280_pressure;Samples;Min_cycle;Max_cycle;Signal;HPM_P1;HPM_P2
2022/08/03 00:02:18;;;;;;;0.22;0.22;;;18.50;99.90;;;;;;5132160;28;20138;-86
2022/08/03 00:04:45;;;;;;;1.00;0.60;;;18.40;99.90;;;;;;5149326;28;20043;-86
2022/08/03 00:07:11;;;;;;;0.25;0.20;;;18.40;99.90;;;;;;5132158;28;20046;-85
2022/08/03 00:09:38;;;;;;;1.02;0.20;;;18.40;99.90;;;;;;5132184;28;20048;-86
2022/08/03 00:12:05;;;;;;;0.10;0.10;;;18.30;99.90;;;;;;5165686;27;20050;-86
2022/08/03 00:14:32;;;;;;;0.40;0.30;;;18.40;99.90;;;;;;5148956;28;20040;-85
2022/08/03 00:16:59;;;;;;;0.17;0.17;;;18.30;99.90;;;;;;5131657;28;20042;-86
2022/08/03 00:19:26;;;;;;;0.25;0.20;;;18.30;99.90;;;;;;5131990;28;20032;-85
2022/08/03 00:21:53;;;;;;;0.20;0.17;;;18.30;99.90;;;;;;5131917;28;20096;-85
2022/08/03 00:24:20;;;;;;;0.20;0.20;;;18.20;99.90;;;;;;5131661;28;20047;-85
2022/08/03 00:26:47;;;;;;;0.10;0.10;;;18.20;99.90;;;;;;5148853;28;20043;-85
2022/08/03 00:29:13;;;;;;;3.72;0.30;;;18.20;99.90;;;;;;5148598;28;20036;-85
2022/08/03 00:31:41;;;;;;;0.10;0.10;;;18.20;99.90;;;;;;5165529;27;20496;-85
2022/08/03 00:34:08;;;;;;;0.10;0.10;;;18.10;99.90;;;;;;5131507;28;20047;-85
2022/08/03 00:36:34;;;;;;;0.20;0.20;;;18.10;99.90;;;;;;5131773;28;20399;-85
2022/08/03 00:39:01;;;;;;;0.20;0.20;;;18.10;99.90;;;;;;5131619;28;20074;-85
2022/08/03 00:41:28;;;;;;;0.10;0.10;;;18.10;99.90;;;;;;5131933;28;20059;-86
2022/08/03 00:43:54;;;;;;;0.25;0.25;;;18.20;99.90;;;;;;5148480;28;20036;-85
2022/08/03 00:46:21;;;;;;;0.20;0.10;;;18.20;99.90;;;;;;5148096;28;20040;-85
2022/08/03 00:48:51;;;;;;;0.55;0.32;;;18.20;99.90;;;;;;5131591;28;20450;-85
2022/08/03 00:51:20;;;;;;;0.20;0.13;;;18.20;99.90;;;;;;5148132;28;20127;-85
2022/08/03 00:53:47;;;;;;;0.10;0.10;;;18.20;99.90;;;;;;5148552;28;20061;-85
2022/08/03 00:56:15;;;;;;;0.10;0.10;;;18.20;99.90;;;;;;5147911;28;20028;-85
2022/08/03 00:58:44;;;;;;;0.17;0.10;;;18.20;99.90;;;;;;5131202;28;20039;-85
2022/08/03 01:01:11;;;;;;;0.00;0.00;;;18.20;99.90;;;;;;5147493;28;20484;-85
2022/08/03 01:03:38;;;;;;;0.10;0.10;;;18.20;99.90;;;;;;5131105;28;20045;-85
2022/08/03 01:06:18;;;;;;;0.10;0.10;;;18.10;99.90;;;;;;5165523;27;20126;-86
2022/08/03 01:09:05;;;;;;;0.15;0.15;;;18.20;99.90;;;;;;5165157;27;20127;-85
2022/08/03 01:11:49;;;;;;;0.20;0.20;;;18.20;99.90;;;;;;5130781;28;20508;-86
2022/08/03 01:15:01;;;;;;;0.00;0.00;;;18.10;99.90;;;;;;5130492;28;20039;-86
2022/08/03 01:17:35;;;;;;;0.28;0.20;;;18.10;99.90;;;;;;5111212;28;20097;-85
2022/08/03 01:20:07;;;;;;;0.10;0.10;;;18.10;99.90;;;;;;5110841;28;20123;-85
2022/08/03 01:22:58;;;;;;;0.65;0.32;;;18.10;99.90;;;;;;5110305;28;20403;-86
2022/08/03 01:25:54;;;;;;;0.63;0.22;;;18.10;99.90;;;;;;5124358;28;20150;-86
2022/08/03 01:28:58;;;;;;;0.10;0.10;;;18.10;99.90;;;;;;5130575;28;20092;-86
2022/08/03 01:31:31;;;;;;;0.30;0.15;;;18.00;99.90;;;;;;5130651;28;20048;-85
2022/08/03 01:34:05;;;;;;;0.00;0.00;;;18.00;99.90;;;;;;5130659;28;20085;-85
2022/08/03 01:36:36;;;;;;;0.10;0.10;;;18.00;99.90;;;;;;5130737;28;20031;-85
2022/08/03 01:39:08;;;;;;;0.10;0.10;;;18.00;99.90;;;;;;5130577;28;20045;-86
2022/08/03 01:41:41;;;;;;;0.43;0.30;;;18.00;99.90;;;;;;5130452;28;20040;-86
2022/08/03 01:44:10;;;;;;;0.20;0.15;;;18.00;99.90;;;;;;5130293;28;20062;-85
2022/08/03 01:46:39;;;;;;;0.00;0.00;;;18.10;99.90;;;;;;5146828;28;20063;-85
2022/08/03 01:49:09;;;;;;;0.08;0.08;;;18.10;99.90;;;;;;5147225;28;20058;-86
2022/08/03 01:51:40;;;;;;;0.00;0.00;;;18.10;99.90;;;;;;5146861;28;20043;-86
2022/08/03 01:54:10;;;;;;;0.10;0.10;;;18.10;99.90;;;;;;5147142;28;20040;-86
2022/08/03 01:56:39;;;;;;;0.13;0.10;;;18.10;99.90;;;;;;5129830;28;20043;-85
2022/08/03 01:59:08;;;;;;;0.08;0.08;;;18.10;99.90;;;;;;5147431;28;20511;-85
2022/08/03 02:01:37;;;;;;;0.00;0.00;;;18.10;99.90;;;;;;5146409;28;20043;-85
2022/08/03 02:04:06;;;;;;;0.00;0.00;;;18.00;99.90;;;;;;5146807;28;20126;-85
2022/08/03 02:06:34;;;;;;;0.00;0.00;;;18.00;99.90;;;;;;5130198;28;20126;-86
2022/08/03 02:09:02;;;;;;;0.15;0.10;;;18.00;99.90;;;;;;5129669;28;20385;-86
2022/08/03 02:11:31;;;;;;;0.00;0.00;;;17.90;99.90;;;;;;5128857;28;20051;-85
2022/08/03 02:14:01;;;;;;;0.10;0.10;;;17.90;99.90;;;;;;5129934;28;20039;-86
2022/08/03 02:16:30;;;;;;;0.00;0.00;;;17.90;99.90;;;;;;5146803;28;20765;-86
2022/08/03 02:18:59;;;;;;;0.08;0.08;;;17.80;99.90;;;;;;5093168;28;20122;-85
2022/08/03 02:21:28;;;;;;;0.30;0.20;;;17.80;99.90;;;;;;5109412;28;20165;-86
2022/08/03 02:23:55;;;;;;;0.05;0.05;;;17.80;99.90;;;;;;5109402;28;20040;-85
2022/08/03 02:26:26;;;;;;;0.30;0.30;;;17.70;99.90;;;;;;5109107;28;20050;-85
2022/08/03 02:28:56;;;;;;;0.32;0.10;;;17.80;99.90;;;;;;5116053;28;20404;-85
2022/08/03 02:31:28;;;;;;;0.05;0.05;;;17.70;99.90;;;;;;5129420;28;20035;-86
2022/08/03 02:34:06;;;;;;;0.15;0.15;;;17.70;99.90;;;;;;5129705;28;20035;-86
2022/08/03 02:36:36;;;;;;;0.90;0.43;;;17.70;99.90;;;;;;5129453;28;20075;-85
2022/08/03 02:39:04;;;;;;;0.28;0.25;;;17.70;99.90;;;;;;5129562;28;20043;-85
2022/08/03 02:41:43;;;;;;;0.10;0.10;;;17.60;99.90;;;;;;5129312;28;20126;-85
2022/08/03 02:44:11;;;;;;;0.28;0.15;;;17.60;99.90;;;;;;5129326;28;20510;-85
2022/08/03 02:46:44;;;;;;;0.00;0.00;;;17.60;99.90;;;;;;5129092;28;20140;-85
2022/08/03 02:49:12;;;;;;;0.10;0.10;;;17.60;99.90;;;;;;5163674;27;20039;-85
2022/08/03 02:51:43;;;;;;;0.00;0.00;;;17.70;99.90;;;;;;5129505;28;20048;-86
2022/08/03 02:54:13;;;;;;;0.30;0.20;;;17.70;99.90;;;;;;5129921;28;20118;-85
2022/08/03 02:56:45;;;;;;;0.10;0.10;;;17.70;99.90;;;;;;5145582;28;20069;-85
2022/08/03 02:59:13;;;;;;;0.75;0.20;;;17.60;99.90;;;;;;5145924;28;20044;-85
2022/08/03 03:01:40;;;;;;;1.73;0.35;;;17.70;99.90;;;;;;5146080;28;20122;-85
2022/08/03 03:04:10;;;;;;;0.10;0.10;;;17.60;99.90;;;;;;5146040;28;20044;-86
2022/08/03 03:06:38;;;;;;;0.13;0.13;;;17.60;99.90;;;;;;5129073;28;20077;-86
2022/08/03 03:09:06;;;;;;;0.20;0.10;;;17.70;99.90;;;;;;5146182;28;20036;-86
2022/08/03 03:11:36;;;;;;;0.25;0.20;;;17.60;99.90;;;;;;5128652;28;20040;-86
2022/08/03 03:14:04;;;;;;;1.17;0.32;;;17.60;99.90;;;;;;5129285;28;20039;-85
2022/08/03 03:16:31;;;;;;;0.10;0.10;;;17.60;99.90;;;;;;5128617;28;20044;-86
2022/08/03 03:18:59;;;;;;;0.30;0.10;;;17.60;99.90;;;;;;5129121;28;20448;-85
2022/08/03 03:21:27;;;;;;;0.10;0.10;;;17.60;99.90;;;;;;5146017;28;20075;-86
2022/08/03 03:23:54;;;;;;;0.00;0.00;;;17.60;99.90;;;;;;5165016;27;20039;-85
2022/08/03 03:26:21;;;;;;;0.20;0.20;;;17.60;99.90;;;;;;5133532;28;20080;-86
2022/08/03 03:28:48;;;;;;;0.25;0.20;;;17.60;99.90;;;;;;5132560;28;20027;-85
2022/08/03 03:31:15;;;;;;;0.25;0.20;;;17.60;99.90;;;;;;5149867;28;20400;-85
2022/08/03 03:33:43;;;;;;;0.10;0.10;;;17.50;99.90;;;;;;5132541;28;20050;-85
2022/08/03 03:36:09;;;;;;;0.35;0.10;;;17.50;99.90;;;;;;5149669;28;20039;-85
2022/08/03 03:38:36;;;;;;;0.17;0.15;;;17.50;99.90;;;;;;5149371;28;20051;-86
2022/08/03 03:41:03;;;;;;;0.10;0.10;;;17.50;99.90;;;;;;5133319;28;20031;-86
2022/08/03 03:43:31;;;;;;;0.13;0.10;;;17.50;99.90;;;;;;5166627;27;20122;-85
2022/08/03 03:45:58;;;;;;;0.00;0.00;;;17.50;99.90;;;;;;5150420;28;20523;-86
2022/08/03 03:48:26;;;;;;;0.00;0.00;;;17.50;99.90;;;;;;5132994;28;20056;-86
2022/08/03 03:50:53;;;;;;;0.20;0.13;;;17.50;99.90;;;;;;5150496;28;20520;-85
2022/08/03 03:53:20;;;;;;;0.15;0.08;;;17.50;99.90;;;;;;5132738;28;20043;-85
2022/08/03 03:55:46;;;;;;;0.40;0.28;;;17.50;99.90;;;;;;5149957;28;20043;-85
2022/08/03 03:58:13;;;;;;;0.55;0.43;;;17.50;99.90;;;;;;5150247;28;20036;-86
2022/08/03 04:00:43;;;;;;;0.10;0.10;;;17.50;99.90;;;;;;5149440;28;20551;-86
2022/08/03 04:03:11;;;;;;;0.00;0.00;;;17.50;99.90;;;;;;5132887;28;20071;-85
2022/08/03 04:11:21;;;;;;;0.10;0.10;;;17.50;99.90;;;;;;5149905;28;20039;-86
2022/08/03 04:14:15;;;;;;;0.15;0.15;;;17.50;99.90;;;;;;5149743;28;20284;-86
2022/08/03 04:17:07;;;;;;;0.10;0.10;;;17.50;99.90;;;;;;5132661;28;20039;-85
2022/08/03 04:19:41;;;;;;;0.10;0.10;;;17.50;99.90;;;;;;5142722;27;20073;-85
2022/08/03 04:22:16;;;;;;;0.17;0.10;;;17.40;99.90;;;;;;5133071;28;20053;-85
2022/08/03 04:24:54;;;;;;;0.63;0.30;;;17.50;99.90;;;;;;5132740;28;20040;-85
2022/08/03 04:27:23;;;;;;;0.10;0.10;;;17.50;99.90;;;;;;5132776;28;20092;-86
2022/08/03 04:29:53;;;;;;;0.20;0.20;;;17.50;99.90;;;;;;5132147;28;20047;-85
2022/08/03 04:32:24;;;;;;;0.08;0.08;;;17.50;99.90;;;;;;5132389;28;20412;-85
2022/08/03 04:34:51;;;;;;;0.10;0.05;;;17.50;99.90;;;;;;5147982;28;20581;-85
2022/08/03 04:37:32;;;;;;;0.10;0.05;;;17.60;99.90;;;;;;5166667;27;20043;-86
2022/08/03 04:40:03;;;;;;;0.32;0.10;;;17.60;99.90;;;;;;5132209;28;20504;-85
2022/08/03 04:42:32;;;;;;;0.00;0.00;;;17.60;99.90;;;;;;5132250;28;20043;-86
2022/08/03 04:44:59;;;;;;;0.00;0.00;;;17.60;99.90;;;;;;5166202;27;20046;-86
2022/08/03 04:47:26;;;;;;;0.00;0.00;;;17.60;99.90;;;;;;5148977;28;20158;-85
2022/08/03 04:49:52;;;;;;;0.10;0.10;;;17.70;99.90;;;;;;5148914;28;20150;-85
2022/08/03 04:52:19;;;;;;;0.10;0.10;;;17.70;99.90;;;;;;5131929;28;20040;-86
2022/08/03 04:54:47;;;;;;;0.65;0.60;;;17.70;99.90;;;;;;5132001;28;20035;-86
2022/08/03 04:57:13;;;;;;;0.10;0.10;;;17.70;99.90;;;;;;5148851;28;20035;-86
2022/08/03 04:59:40;;;;;;;0.10;0.10;;;17.80;99.90;;;;;;5131661;28;20104;-86
2022/08/03 05:02:07;;;;;;;0.10;0.10;;;17.80;99.90;;;;;;5149226;28;20134;-86
2022/08/03 05:04:33;;;;;;;0.10;0.10;;;17.80;99.90;;;;;;5148792;28;20062;-85
2022/08/03 05:07:00;;;;;;;0.22;0.15;;;17.80;99.90;;;;;;5165523;27;20044;-85
2022/08/03 05:09:27;;;;;;;0.00;0.00;;;17.80;99.90;;;;;;5132186;28;20061;-85
2022/08/03 05:11:54;;;;;;;0.00;0.00;;;17.90;99.90;;;;;;5131337;28;20031;-85
2022/08/03 05:14:21;;;;;;;0.13;0.10;;;18.00;99.90;;;;;;5148446;28;20067;-85
2022/08/03 05:16:47;;;;;;;0.10;0.10;;;18.00;99.90;;;;;;5131663;28;20123;-86
2022/08/03 05:19:14;;;;;;;0.08;0.08;;;18.10;99.90;;;;;;5148919;28;20064;-85
2022/08/03 05:21:41;;;;;;;0.13;0.10;;;18.10;99.90;;;;;;5165407;27;20035;-85
2022/08/03 05:24:07;;;;;;;0.15;0.10;;;18.10;99.90;;;;;;5131568;28;20104;-85
2022/08/03 05:26:34;;;;;;;0.50;0.30;;;18.10;99.90;;;;;;5131887;28;20126;-85
2022/08/03 05:29:01;;;;;;;0.73;0.30;;;18.20;99.90;;;;;;5133291;28;20104;-85
2022/08/03 05:31:28;;;;;;;0.15;0.10;;;18.20;99.90;;;;;;5134962;28;20040;-86
2022/08/03 05:33:55;;;;;;;0.22;0.17;;;18.30;99.90;;;;;;5130834;28;20039;-85
2022/08/03 05:36:22;;;;;;;0.10;0.10;;;18.30;99.90;;;;;;5148423;28;20527;-86
2022/08/03 05:38:49;;;;;;;0.08;0.08;;;18.40;99.90;;;;;;5131285;28;20074;-85
2022/08/03 05:41:16;;;;;;;0.32;0.20;;;18.40;99.90;;;;;;5147711;28;20411;-86
2022/08/03 05:43:43;;;;;;;0.28;0.22;;;18.50;99.90;;;;;;5131091;28;20104;-86
2022/08/03 05:46:10;;;;;;;0.38;0.28;;;18.50;99.90;;;;;;5130778;28;20036;-85
2022/08/03 05:48:37;;;;;;;0.05;0.05;;;18.60;99.90;;;;;;5164988;27;20416;-86
2022/08/03 05:51:06;;;;;;;0.20;0.20;;;18.60;99.90;;;;;;5147343;28;20044;-85
2022/08/03 05:53:33;;;;;;;0.10;0.10;;;18.70;99.90;;;;;;5130652;28;20099;-85
2022/08/03 05:56:01;;;;;;;4.00;0.30;;;18.70;99.90;;;;;;5164515;27;20090;-86
2022/08/03 05:58:28;;;;;;;0.30;0.10;;;18.70;99.90;;;;;;5148232;28;20044;-85
2022/08/03 06:00:54;;;;;;;0.20;0.20;;;18.80;99.90;;;;;;5130242;28;20043;-85
2022/08/03 06:03:21;;;;;;;0.17;0.10;;;18.80;99.90;;;;;;5147662;28;20044;-85
2022/08/03 06:05:48;;;;;;;0.10;0.10;;;18.90;99.90;;;;;;5130498;28;20043;-85
2022/08/03 06:08:15;;;;;;;0.08;0.08;;;18.90;99.90;;;;;;5143475;28;20036;-85
2022/08/03 06:10:41;;;;;;;0.10;0.10;;;19.00;99.90;;;;;;5127133;28;20044;-88
2022/08/03 06:13:08;;;;;;;0.10;0.10;;;19.00;99.90;;;;;;5126701;28;20063;-86
2022/08/03 06:15:35;;;;;;;0.20;0.10;;;19.10;99.90;;;;;;5126720;28;20040;-86
2022/08/03 06:18:02;;;;;;;0.20;0.20;;;19.20;99.90;;;;;;5141029;28;20035;-85
2022/08/03 06:20:29;;;;;;;0.10;0.10;;;19.20;99.90;;;;;;5130695;28;20369;-86
2022/08/03 06:22:56;;;;;;;0.45;0.10;;;19.30;99.90;;;;;;5146960;28;20166;-86
2022/08/03 06:25:24;;;;;;;0.00;0.00;;;19.30;99.90;;;;;;5130055;28;20050;-86
2022/08/03 06:27:51;;;;;;;0.03;0.03;;;19.30;99.90;;;;;;5147050;28;20050;-86
2022/08/03 06:30:18;;;;;;;0.10;0.05;;;19.30;99.90;;;;;;5130485;28;20492;-85
2022/08/03 06:32:44;;;;;;;2.28;0.20;;;19.40;99.90;;;;;;5147234;28;20506;-85
2022/08/03 06:35:11;;;;;;;0.17;0.17;;;19.40;99.90;;;;;;5130155;28;20036;-85
2022/08/03 06:37:46;;;;;;;0.10;0.10;;;19.50;99.90;;;;;;5146784;28;20401;-85
2022/08/03 06:40:15;;;;;;;0.08;0.05;;;19.50;99.90;;;;;;5129656;28;20100;-86
2022/08/03 06:42:42;;;;;;;0.10;0.10;;;19.50;99.90;;;;;;5146974;28;20040;-86
2022/08/03 06:45:10;;;;;;;0.10;0.10;;;19.60;99.90;;;;;;5146460;28;20420;-85
2022/08/03 06:47:38;;;;;;;0.15;0.10;;;19.60;99.90;;;;;;5146517;28;20074;-85
2022/08/03 06:50:06;;;;;;;0.10;0.10;;;19.70;99.90;;;;;;5163553;27;20503;-86
2022/08/03 06:52:33;;;;;;;0.00;0.00;;;19.80;99.90;;;;;;5129898;28;20036;-86
2022/08/03 06:55:00;;;;;;;0.10;0.10;;;19.90;99.90;;;;;;5146750;28;20087;-86
2022/08/03 06:57:26;;;;;;;0.10;0.10;;;19.90;99.90;;;;;;5146940;28;20377;-85
2022/08/03 06:59:55;;;;;;;0.20;0.20;;;20.00;99.90;;;;;;5153225;28;20131;-86
2022/08/03 07:02:21;;;;;;;0.10;0.10;;;20.10;99.90;;;;;;5153587;28;20050;-86
2022/08/03 07:04:48;;;;;;;0.10;0.10;;;20.20;99.90;;;;;;5136859;28;20091;-86
2022/08/03 07:07:16;;;;;;;0.15;0.13;;;20.30;99.90;;;;;;5153469;28;20035;-85
2022/08/03 07:09:43;;;;;;;0.75;0.43;;;20.40;99.90;;;;;;5153864;28;20077;-86
2022/08/03 07:12:09;;;;;;;0.17;0.17;;;20.40;99.90;;;;;;5136137;28;20687;-86
2022/08/03 07:14:36;;;;;;;0.10;0.10;;;20.50;99.90;;;;;;5170918;27;20047;-85
2022/08/03 07:17:02;;;;;;;0.10;0.10;;;20.50;99.90;;;;;;5136200;28;20074;-85
2022/08/03 07:19:29;;;;;;;0.20;0.20;;;20.60;99.90;;;;;;5136554;28;20040;-86
2022/08/03 07:21:56;;;;;;;0.50;0.20;;;20.60;99.90;;;;;;5153623;28;20126;-86
2022/08/03 07:24:23;;;;;;;0.22;0.20;;;20.70;99.90;;;;;;5153416;28;20040;-85
2022/08/03 07:26:49;;;;;;;0.32;0.30;;;20.70;99.90;;;;;;5153377;28;20044;-86
2022/08/03 07:29:16;;;;;;;0.55;0.38;;;20.80;99.90;;;;;;5136348;28;20043;-86
2022/08/03 07:31:43;;;;;;;0.38;0.30;;;20.80;99.90;;;;;;5136876;28;20515;-86
2022/08/03 07:34:09;;;;;;;0.10;0.10;;;20.90;99.90;;;;;;5153066;28;20501;-86
2022/08/03 07:36:37;;;;;;;0.20;0.13;;;21.00;99.90;;;;;;5136618;28;20031;-86
2022/08/03 07:39:03;;;;;;;0.55;0.03;;;21.10;99.90;;;;;;5153448;28;20478;-86
2022/08/03 07:41:30;;;;;;;0.20;0.20;;;21.10;99.90;;;;;;5136382;28;20118;-86
2022/08/03 07:43:57;;;;;;;0.25;0.25;;;21.20;99.90;;;;;;5153351;28;20032;-86
2022/08/03 07:46:24;;;;;;;0.20;0.15;;;21.40;99.90;;;;;;5135599;28;20074;-86
2022/08/03 07:48:51;;;;;;;0.60;0.38;;;21.50;99.90;;;;;;5136091;28;20047;-85
2022/08/03 07:51:19;;;;;;;0.43;0.38;;;21.50;99.90;;;;;;5153106;28;20818;-86
2022/08/03 07:53:46;;;;;;;0.43;0.30;;;21.60;99.90;;;;;;5153298;28;20101;-86
2022/08/03 07:56:13;;;;;;;1.20;0.28;;;21.70;99.90;;;;;;5135743;28;20065;-86
2022/08/03 07:58:39;;;;;;;0.38;0.30;;;21.80;99.90;;;;;;5153041;28;20066;-86
2022/08/03 08:01:06;;;;;;;0.20;0.20;;;22.00;99.90;;;;;;5153256;28;20043;-86
2022/08/03 08:03:33;;;;;;;0.10;0.10;;;22.00;99.90;;;;;;5136093;28;20499;-86
2022/08/03 08:06:00;;;;;;;0.20;0.20;;;22.10;99.90;;;;;;5136338;28;20043;-86
2022/08/03 08:08:26;;;;;;;0.65;0.28;;;22.20;99.90;;;;;;5136225;28;20086;-86
2022/08/03 08:10:53;;;;;;;0.05;0.05;;;22.30;99.90;;;;;;5149221;28;20122;-86
2022/08/03 08:13:20;;;;;;;0.40;0.17;;;22.40;99.90;;;;;;5132455;28;20061;-86
2022/08/03 08:15:46;;;;;;;0.28;0.13;;;22.40;99.90;;;;;;5133469;28;20388;-85
2022/08/03 08:18:13;;;;;;;0.35;0.30;;;22.50;99.90;;;;;;5149707;28;20560;-86
2022/08/03 08:20:42;;;;;;;0.13;0.13;;;22.50;99.90;;;;;;5149618;28;20400;-86
2022/08/03 08:23:09;;;;;;;0.30;0.22;;;22.60;99.90;;;;;;5131881;28;20496;-86
2022/08/03 08:25:36;;;;;;;0.20;0.20;;;22.70;99.90;;;;;;5149895;28;20055;-86
2022/08/03 08:28:03;;;;;;;0.20;0.20;;;22.80;99.90;;;;;;5132742;28;20042;-86
2022/08/03 08:30:31;;;;;;;0.20;0.20;;;22.90;99.90;;;;;;5166995;27;20043;-86
2022/08/03 08:32:58;;;;;;;0.22;0.22;;;23.00;99.90;;;;;;5149346;28;20039;-86
2022/08/03 08:35:25;;;;;;;1.17;0.60;;;23.00;99.90;;;;;;5149289;28;20047;-86
2022/08/03 08:37:52;;;;;;;0.50;0.22;;;23.00;99.90;;;;;;5166648;27;20403;-86
2022/08/03 08:40:22;;;;;;;0.10;0.10;;;23.10;99.90;;;;;;5131776;28;20081;-86
2022/08/03 08:42:49;;;;;;;0.20;0.20;;;23.20;99.90;;;;;;5149242;28;20488;-86
2022/08/03 08:45:19;;;;;;;1.02;0.57;;;23.40;99.90;;;;;;5131894;28;20039;-85
2022/08/03 08:47:48;;;;;;;0.93;0.32;;;23.40;99.90;;;;;;5148513;28;20074;-86
2022/08/03 08:50:20;;;;;;;0.10;0.10;;;23.50;99.90;;;;;;5148905;28;20539;-86
2022/08/03 08:52:49;;;;;;;0.57;0.30;;;23.60;99.90;;;;;;5132214;28;20036;-86
2022/08/03 08:55:21;;;;;;;0.50;0.30;;;23.70;99.90;;;;;;5131466;28;20040;-86
2022/08/03 08:58:00;;;;;;;0.20;0.20;;;23.80;99.90;;;;;;5132064;28;20067;-86
2022/08/03 09:00:27;;;;;;;0.30;0.22;;;24.00;99.90;;;;;;5131772;28;20038;-85
2022/08/03 09:02:53;;;;;;;0.28;0.28;;;24.00;99.90;;;;;;5149029;28;20484;-86
2022/08/03 09:05:20;;;;;;;1.85;0.30;;;24.10;99.90;;;;;;5131466;28;20044;-86
2022/08/03 09:07:47;;;;;;;0.10;0.10;;;24.20;99.90;;;;;;5131535;28;20047;-86
2022/08/03 09:10:20;;;;;;;0.13;0.10;;;24.30;99.90;;;;;;5165762;27;20032;-86
2022/08/03 09:12:50;;;;;;;0.32;0.28;;;24.40;99.90;;;;;;5148270;28;20071;-86
2022/08/03 09:15:23;;;;;;;0.20;0.20;;;24.50;99.90;;;;;;5131327;28;20071;-85
2022/08/03 09:17:52;;;;;;;0.30;0.30;;;24.60;99.90;;;;;;5165785;27;20050;-86
2022/08/03 09:20:20;;;;;;;0.40;0.32;;;24.70;99.90;;;;;;5131479;28;20039;-86
2022/08/03 09:23:07;;;;;;;0.28;0.20;;;24.70;99.90;;;;;;5148208;28;20036;-86
2022/08/03 09:25:40;;;;;;;0.10;0.10;;;24.70;99.90;;;;;;5147951;28;20051;-86
2022/08/03 09:28:08;;;;;;;0.70;0.40;;;24.80;99.90;;;;;;5131558;28;20043;-85
2022/08/03 09:30:40;;;;;;;0.55;0.40;;;24.90;99.90;;;;;;5131158;28;20504;-85
2022/08/03 09:33:09;;;;;;;0.20;0.20;;;25.00;99.90;;;;;;5131289;28;20131;-86
2022/08/03 09:35:48;;;;;;;0.28;0.20;;;25.20;99.90;;;;;;5147931;28;20072;-86
2022/08/03 09:38:24;;;;;;;0.22;0.20;;;25.30;99.90;;;;;;5147513;28;20092;-86
2022/08/03 09:40:52;;;;;;;0.80;0.30;;;25.40;99.90;;;;;;5131217;28;20031;-86
2022/08/03 09:43:19;;;;;;;0.45;0.32;;;25.60;99.90;;;;;;5147614;28;20047;-86
2022/08/03 09:45:46;;;;;;;1.27;0.38;;;25.60;99.90;;;;;;5165097;27;20039;-85
2022/08/03 09:48:26;;;;;;;3.10;0.40;;;25.60;99.90;;;;;;5130543;28;20105;-86
2022/08/03 09:50:58;;;;;;;0.70;0.60;;;25.70;99.90;;;;;;5165094;27;20042;-86
2022/08/03 09:53:26;;;;;;;0.40;0.30;;;25.80;99.90;;;;;;5147373;28;20636;-85
2022/08/03 09:56:00;;;;;;;0.60;0.47;;;25.90;99.90;;;;;;5131144;28;20035;-85
2022/08/03 09:58:29;;;;;;;0.30;0.30;;;26.00;99.90;;;;;;5164709;27;20051;-85
2022/08/03 10:01:00;;;;;;;0.20;0.20;;;26.10;99.90;;;;;;5130545;28;20554;-85
2022/08/03 10:03:30;;;;;;;0.68;0.40;;;26.10;99.90;;;;;;5147213;28;20043;-85
2022/08/03 10:05:57;;;;;;;0.43;0.32;;;26.30;99.90;;;;;;5147679;28;20603;-86
2022/08/03 10:08:24;;;;;;;1.27;0.50;;;26.30;99.90;;;;;;5164611;27;20092;-86
2022/08/03 10:10:57;;;;;;;0.57;0.38;;;26.40;99.90;;;;;;5164799;27;20551;-86
2022/08/03 10:13:24;;;;;;;1.48;0.55;;;26.50;99.90;;;;;;5130468;28;20039;-86
2022/08/03 10:15:50;;;;;;;0.30;0.20;;;26.70;99.90;;;;;;5147629;28;20499;-85
2022/08/03 10:18:17;;;;;;;0.20;0.20;;;26.60;99.90;;;;;;5147009;28;20092;-85
2022/08/03 10:20:54;;;;;;;1.10;0.40;;;26.80;99.90;;;;;;5147084;28;20036;-85
2022/08/03 10:23:23;;;;;;;0.65;0.32;;;26.90;99.90;;;;;;5129816;28;20840;-85
2022/08/03 10:25:56;;;;;;;0.98;0.47;;;27.00;99.90;;;;;;5146675;28;20088;-85
2022/08/03 10:28:23;;;;;;;0.28;0.28;;;27.10;99.90;;;;;;5147092;28;20039;-85
2022/08/03 10:30:52;;;;;;;1.02;0.38;;;27.20;99.90;;;;;;5147074;28;20039;-85
2022/08/03 10:33:21;;;;;;;0.30;0.30;;;27.40;99.90;;;;;;5129233;28;20040;-85
2022/08/03 10:35:53;;;;;;;1.42;0.75;;;27.40;99.90;;;;;;5130118;28;20043;-85
2022/08/03 10:38:27;;;;;;;0.30;0.30;;;27.50;99.90;;;;;;5146638;28;20047;-86
2022/08/03 10:40:55;;;;;;;0.20;0.20;;;27.50;99.90;;;;;;5146797;28;20114;-86
2022/08/03 10:43:27;;;;;;;0.63;0.50;;;27.70;99.90;;;;;;5146825;28;20058;-85
2022/08/03 10:45:55;;;;;;;0.52;0.40;;;27.80;99.90;;;;;;5147042;28;20044;-85
2022/08/03 10:48:22;;;;;;;0.20;0.20;;;27.70;99.90;;;;;;5146299;28;20113;-85
2022/08/03 10:50:50;;;;;;;0.68;0.30;;;27.80;99.90;;;;;;5146629;28;20445;-85
2022/08/03 10:53:34;;;;;;;0.20;0.20;;;27.80;99.90;;;;;;5146484;28;20138;-85
2022/08/03 10:58:50;;;;;;;3.92;0.25;;;27.90;99.90;;;;;;5146383;28;20511;-85
2022/08/03 11:01:38;;;;;;;0.30;0.30;;;27.90;99.90;;;;;;5145958;28;20031;-85
2022/08/03 11:04:04;;;;;;;0.73;0.40;;;28.00;99.90;;;;;;5129540;28;20108;-85
2022/08/03 11:06:31;;;;;;;0.30;0.20;;;28.00;99.90;;;;;;5146476;28;20043;-86
2022/08/03 11:09:10;;;;;;;0.20;0.20;;;28.10;99.90;;;;;;5146711;28;20123;-86
2022/08/03 11:11:39;;;;;;;0.25;0.25;;;28.20;99.90;;;;;;5145929;28;20208;-85
2022/08/03 11:14:07;;;;;;;1.60;0.55;;;28.20;99.90;;;;;;5129792;28;20126;-86
2022/08/03 11:16:40;;;;;;;0.30;0.30;;;28.30;99.90;;;;;;5129891;28;20040;-85
2022/08/03 11:19:09;;;;;;;0.30;0.30;;;28.30;99.90;;;;;;5126630;28;20043;-86
2022/08/03 11:21:51;;;;;;;0.32;0.20;;;28.50;99.90;;;;;;5174478;27;20427;-86
2022/08/03 11:24:36;;;;;;;0.30;0.30;;;28.60;99.90;;;;;;5163761;28;20488;-85
2022/08/03 11:27:18;;;;;;;;;;;28.60;99.90;;;;;;5164032;27;20522;-86
2022/08/03 11:30:08;;;;;;;0.38;0.35;;;28.70;99.90;;;;;;5129154;28;19916;-86
2022/08/03 11:32:43;;;;;;;2.97;0.60;;;28.80;99.90;;;;;;5163237;28;20088;-86
2022/08/03 11:35:35;;;;;;;0.70;0.40;;;28.90;99.90;;;;;;5146668;28;20081;-85
2022/08/03 11:38:06;;;;;;;0.47;0.25;;;29.00;99.90;;;;;;5146472;28;20492;-86
2022/08/03 11:40:50;;;;;;;0.65;0.40;;;29.00;99.90;;;;;;5129098;28;20035;-85
2022/08/03 11:43:29;;;;;;;0.30;0.30;;;29.20;99.90;;;;;;5129581;28;20404;-85
2022/08/03 11:46:16;;;;;;;0.55;0.30;;;29.20;99.90;;;;;;5167224;27;20047;-85
2022/08/03 11:48:44;;;;;;;1.00;0.50;;;29.20;99.90;;;;;;5132860;28;20048;-86
2022/08/03 11:51:23;;;;;;;2.30;0.40;;;29.20;99.90;;;;;;5150433;28;20039;-86
2022/08/03 11:53:55;;;;;;;0.32;0.22;;;28.90;99.90;;;;;;5149838;28;20039;-85
2022/08/03 11:56:22;;;;;;;0.15;0.15;;;29.00;99.90;;;;;;5150481;28;20043;-86
2022/08/03 11:58:52;;;;;;;0.20;0.20;;;29.00;99.90;;;;;;5149706;28;20042;-86
2022/08/03 12:01:21;;;;;;;1.23;0.45;;;29.00;99.90;;;;;;5133103;28;20043;-86
2022/08/03 12:03:48;;;;;;;0.45;0.40;;;29.00;99.90;;;;;;5149927;28;20043;-86
2022/08/03 12:06:17;;;;;;;0.57;0.38;;;29.10;99.90;;;;;;5133015;28;20043;-86
2022/08/03 12:08:45;;;;;;;0.38;0.30;;;29.20;99.90;;;;;;5132898;28;20097;-85
2022/08/03 12:11:14;;;;;;;0.20;0.20;;;29.10;99.90;;;;;;5149874;28;20051;-84
2022/08/03 12:13:46;;;;;;;1.25;0.25;;;29.10;99.90;;;;;;5132432;28;20490;-85
2022/08/03 12:16:20;;;;;;;0.68;0.35;;;29.20;99.90;;;;;;5132664;28;20078;-86
2022/08/03 12:18:57;;;;;;;;;;;29.30;99.90;;;;;;5133337;28;20047;-85
2022/08/03 12:21:24;;;;;;;0.55;0.30;;;29.30;99.90;;;;;;5132421;28;19920;-85
2022/08/03 12:23:57;;;;;;;0.20;0.20;;;29.30;99.90;;;;;;5149180;28;20040;-85
2022/08/03 12:26:24;;;;;;;0.20;0.20;;;29.30;99.90;;;;;;5132418;28;20046;-85
2022/08/03 12:28:51;;;;;;;0.30;0.30;;;29.30;99.90;;;;;;5132296;28;20039;-85
2022/08/03 12:31:18;;;;;;;0.45;0.30;;;29.30;99.90;;;;;;5131988;28;20650;-85
2022/08/03 12:33:57;;;;;;;0.57;0.38;;;29.20;99.90;;;;;;5131359;28;20407;-85
2022/08/03 12:36:24;;;;;;;1.10;0.40;;;29.30;99.90;;;;;;5166433;27;20044;-85
2022/08/03 12:39:02;;;;;;;0.55;0.20;;;29.40;99.90;;;;;;5148838;28;20152;-85
2022/08/03 12:41:37;;;;;;;0.35;0.20;;;29.40;99.90;;;;;;5132404;28;20074;-85
2022/08/03 12:44:06;;;;;;;0.65;0.30;;;29.30;99.90;;;;;;5131997;28;20403;-85
2022/08/03 12:46:42;;;;;;;0.75;0.35;;;29.20;99.90;;;;;;5131846;28;20059;-85
2022/08/03 12:49:14;;;;;;;0.40;0.20;;;29.20;99.90;;;;;;5149524;28;20520;-85
2022/08/03 12:51:43;;;;;;;0.32;0.20;;;29.30;99.90;;;;;;5165786;27;20032;-86
2022/08/03 12:54:29;;;;;;;0.63;0.38;;;29.40;99.90;;;;;;5166335;27;20028;-85
2022/08/03 12:57:03;;;;;;;0.50;0.30;;;29.40;99.90;;;;;;5146152;28;20582;-85
2022/08/03 12:59:42;;;;;;;0.35;0.28;;;29.40;99.90;;;;;;5166078;27;20450;-85
2022/08/03 13:02:17;;;;;;;0.20;0.20;;;29.50;99.90;;;;;;5132315;28;20044;-86
2022/08/03 13:04:45;;;;;;;0.90;0.50;;;29.60;99.90;;;;;;5131474;28;20051;-85
2022/08/03 13:07:13;;;;;;;0.17;0.15;;;29.50;99.90;;;;;;5148677;28;20058;-86
2022/08/03 13:09:43;;;;;;;0.80;0.30;;;29.60;99.90;;;;;;5148167;28;20039;-85
2022/08/03 13:12:13;;;;;;;0.30;0.30;;;29.60;99.90;;;;;;5148343;28;20088;-85